LGZA/ZTH METAR and TAF weather

Enter ICAO airport designator
Station Type Date Time Source
LGZA METAR 2022/06/30 13:50 UTC NOAA

LGZA 301350Z 02004KT 9999 FEW025 33/19 Q1012


Station Type Date Time Source
LGZA Decoded METAR 2022/06/30 13:50 UTC NOAA

Zakinthos Airport , Greece (LGZA) 37-45N 020-53E
Jun 30, 2022 - 09:50 AM EDT / 2022.06.30 1350 UTC
Wind: from the NNE (020 degrees) at 5 MPH (4 KT):0
Visibility: greater than 7 mile(s):0
Sky conditions: mostly clear
Temperature: 91 F (33 C)
Dew Point: 66 F (19 C)
Relative Humidity: 43%
Pressure (altimeter): 29.88 in. Hg (1012 hPa)
ob: LGZA 301350Z 02004KT 9999 FEW025 33/19 Q1012
cycle: 14

Station Type Date Time Source
LGZA TAF 2011/11/25 15:06 UTC NOAA

TAF TAF LGZA 251400Z 2515/2603 02012KT 9999 FEW025 SCT035 BKN080 PROB30
TEMPO 2518/2603 8000 RA PROB30 2522/2603 5000 BR SCT010

Example: see airport list